Time;durP1;ratioP1;P1;durP2;ratioP2;P2;SDS_P1;SDS_P2;PMS_P1;PMS_P2;Temp;Humidity;BMP_temperature;BMP_pressure;BME280_temperature;BME280_humidity;BME280_pressure;Samples;Min_cycle;Max_cycle;Signal;HPM_P1;HPM_P2
2023/04/24 00:01:31;;;;;;;1.03;0.30;;;;;;;;;;20806812;28;20245;-71
2023/04/24 00:11:33;;;;;;;0.20;0.20;;;;;;;;;;20711425;28;20241;-71
2023/04/24 00:21:34;;;;;;;0.20;0.20;;;;;;;;;;20741991;28;20285;-71
2023/04/24 00:31:36;;;;;;;0.30;0.30;;;;;;;;;;20725564;28;20638;-71
2023/04/24 00:41:38;;;;;;;0.20;0.20;;;;;;;;;;20741222;28;20218;-71
2023/04/24 00:51:40;;;;;;;0.43;0.30;;;13.70;99.90;;;;;;20740759;28;20207;-71
2023/04/24 01:01:42;;;;;;;0.50;0.30;;;;;;;;;;20723868;28;20215;-72
2023/04/24 01:11:44;;;;;;;0.83;0.33;;;;;;;;;;20756112;28;20187;-71
2023/04/24 01:21:48;;;;;;;0.70;0.43;;;13.70;99.90;;;;;;20738890;28;20269;-71
2023/04/24 01:31:54;;;;;;;0.20;0.20;;;;;;;;;;20738277;28;20226;-71
2023/04/24 01:41:56;;;;;;;0.20;0.20;;;;;;;;;;20720842;28;20222;-71
2023/04/24 01:51:58;;;;;;;0.30;0.30;;;;;;;;;;20737473;28;20238;-71
2023/04/24 02:02:00;;;;;;;0.30;0.30;;;;;;;;;;20737005;28;20626;-71
2023/04/24 02:12:02;;;;;;;0.63;0.30;;;;;;;;;;20736369;28;20215;-71
2023/04/24 02:22:04;;;;;;;0.43;0.30;;;;;;;;;;20736125;28;20269;-71
2023/04/24 02:32:06;;;;;;;0.53;0.43;;;;;;;;;;20736441;28;20611;-71
2023/04/24 02:42:08;;;;;;;0.30;0.30;;;;;;;;;;20736035;28;20223;-72
2023/04/24 02:52:10;;;;;;;0.30;0.30;;;;;;;;;;20738067;28;20211;-71
2023/04/24 03:02:12;;;;;;;0.73;0.40;;;;;;;;;;20733618;28;20301;-71
2023/04/24 03:12:14;;;;;;;0.60;0.43;;;;;;;;;;20748881;28;20606;-71
2023/04/24 03:22:16;;;;;;;0.20;0.20;;;;;;;;;;20747195;28;20801;-72
2023/04/24 03:32:18;;;;;;;0.30;0.30;;;;;;;;;;20789802;28;20246;-71
2023/04/24 03:42:22;;;;;;;0.33;0.20;;;;;;;;;;20812809;28;20222;-72
2023/04/24 03:52:31;;;;;;;0.67;0.40;;;;;;;;;;20776537;28;20242;-72
2023/04/24 04:02:33;;;;;;;0.33;0.33;;;;;;;;;;20784328;28;20235;-72
2023/04/24 04:12:36;;;;;;;0.20;0.20;;;;;;;;;;20808312;28;20280;-73
2023/04/24 04:22:38;;;;;;;0.63;0.53;;;;;;;;;;20792973;28;20214;-71
2023/04/24 04:32:43;;;;;;;0.40;0.40;;;;;;;;;;20792406;28;20272;-71
2023/04/24 04:42:45;;;;;;;0.83;0.60;;;;;;;;;;20790579;28;20249;-72
2023/04/24 04:52:49;;;;;;;0.90;0.50;;;;;;;;;;20790672;28;20210;-71
2023/04/24 05:03:01;;;;;;;0.70;0.40;;;;;;;;;;20791809;28;20263;-71
2023/04/24 05:13:04;;;;;;;1.17;0.60;;;12.70;99.90;;;;;;20789112;28;20968;-72
2023/04/24 05:23:08;;;;;;;1.37;0.73;;;;;;;;;;20788345;28;20215;-71
2023/04/24 05:33:10;;;;;;;1.17;0.70;;;;;;;;;;20878150;23;20246;-79
2023/04/24 05:43:12;;;;;;;1.00;0.50;;;12.70;99.90;;;;;;20885900;28;20233;-79
2023/04/24 05:53:14;;;;;;;0.80;0.67;;;;;;;;;;20904680;28;20248;-79
2023/04/24 06:03:15;;;;;;;0.70;0.50;;;;;;;;;;20870333;28;20233;-80
2023/04/24 06:13:17;;;;;;;0.30;0.30;;;;;;;;;;20869502;28;20214;-80
2023/04/24 06:23:33;;;;;;;0.30;0.30;;;;;;;;;;20902158;28;20221;-80
2023/04/24 06:33:35;;;;;;;0.20;0.20;;;;;;;;;;20899416;28;20260;-79
2023/04/24 06:43:36;;;;;;;1.93;0.40;;;;;;;;;;20918442;28;20299;-79
2023/04/24 06:53:38;;;;;;;0.60;0.40;;;;;;;;;;20937675;28;20222;-80
2023/04/24 07:03:40;;;;;;;0.20;0.20;;;;;;;;;;20915472;28;20587;-80
2023/04/24 07:13:41;;;;;;;0.53;0.40;;;;;;;;;;20896671;28;20218;-80
2023/04/24 07:23:43;;;;;;;0.63;0.40;;;;;;;;;;20913032;28;20479;-80
2023/04/24 07:33:45;;;;;;;0.73;0.43;;;;;;;;;;20914369;28;20260;-80
2023/04/24 07:43:49;;;;;;;2.13;0.30;;;;;;;;;;20910804;28;20230;-80
2023/04/24 07:53:51;;;;;;;0.60;0.50;;;;;;;;;;20894504;28;20218;-80
2023/04/24 08:03:53;;;;;;;0.50;0.27;;;;;;;;;;20911446;28;20230;-80
2023/04/24 08:13:55;;;;;;;0.53;0.40;;;;;;;;;;20900813;28;20221;-80
2023/04/24 08:23:56;;;;;;;0.53;0.40;;;;;;;;;;20917798;28;20275;-79
2023/04/24 08:33:59;;;;;;;0.83;0.40;;;;;;;;;;20860144;28;20291;-80
2023/04/24 08:44:02;;;;;;;0.30;0.27;;;;;;;;;;20822688;28;20223;-79
2023/04/24 08:54:05;;;;;;;0.60;0.50;;;;;;;;;;20822409;28;20243;-79
2023/04/24 09:04:12;;;;;;;0.73;0.50;;;13.00;99.90;;;;;;20820726;28;20264;-79
2023/04/24 09:14:15;;;;;;;0.90;0.40;;;;;;;;;;20899394;28;20562;-80
2023/04/24 09:24:20;;;;;;;1.43;0.43;;;13.00;99.90;;;;;;20904190;28;20218;-80
2023/04/24 09:34:26;;;;;;;0.97;0.60;;;13.40;99.90;;;;;;20900591;28;20562;-80
2023/04/24 09:44:29;;;;;;;0.63;0.43;;;;;;;;;;20901397;28;20237;-80
2023/04/24 09:54:31;;;;;;;1.50;0.57;;;;;;;;;;20885845;28;20287;-79
2023/04/24 10:04:33;;;;;;;0.57;0.40;;;;;;;;;;20927972;28;20225;-80
2023/04/24 10:14:35;;;;;;;0.30;0.30;;;;;;;;;;20917315;28;20769;-80
2023/04/24 10:24:38;;;;;;;0.73;0.50;;;;;;;;;;20919595;28;20241;-80
2023/04/24 10:34:39;;;;;;;0.50;0.37;;;;;;;;;;20899580;28;20772;-80
2023/04/24 10:44:41;;;;;;;0.70;0.50;;;;;;;;;;20898202;28;20226;-80
2023/04/24 10:54:45;;;;;;;1.00;0.73;;;;;;;;;;20896374;28;20218;-81
2023/04/24 11:04:51;;;;;;;0.77;0.50;;;15.10;99.90;;;;;;20914381;28;20234;-81
2023/04/24 11:15:00;;;;;;;0.73;0.60;;;14.60;99.90;;;;;;20914530;28;20276;-80
2023/04/24 11:25:03;;;;;;;0.70;0.50;;;;;;;;;;20897635;28;20225;-80
2023/04/24 11:35:06;;;;;;;0.77;0.70;;;;;;;;;;20896926;28;20688;-80
2023/04/24 11:45:17;;;;;;;1.10;0.70;;;14.70;99.90;;;;;;20933102;28;20769;-81
2023/04/24 11:55:19;;;;;;;3.13;0.90;;;;;;;;;;20910623;28;20267;-80
2023/04/24 12:05:25;;;;;;;1.03;0.80;;;15.30;99.90;;;;;;20910509;28;20222;-80
2023/04/24 12:15:28;;;;;;;2.57;0.90;;;;;;;;;;20908902;28;20217;-80
2023/04/24 12:25:31;;;;;;;0.93;0.70;;;14.90;99.90;;;;;;20907315;28;20827;-80
2023/04/24 12:35:35;;;;;;;0.70;0.53;;;;;;;;;;20913754;28;20244;-80
2023/04/24 12:45:37;;;;;;;0.83;0.67;;;;;;;;;;20894169;28;20668;-80
2023/04/24 12:55:38;;;;;;;1.47;1.00;;;;;;;;;;20911167;28;20198;-80
2023/04/24 13:05:41;;;;;;;1.33;1.03;;;;;;;;;;20894036;28;20378;-80
2023/04/24 13:15:43;;;;;;;3.47;0.93;;;;;;;;;;20857700;28;20195;-78
2023/04/24 13:25:45;;;;;;;3.40;1.67;;;;;;;;;;20830126;28;20312;-80
2023/04/24 13:35:46;;;;;;;7.63;3.17;;;;;;;;;;20824602;28;20648;-80
2023/04/24 13:45:48;;;;;;;1.10;0.90;;;;;;;;;;20823665;28;20293;-80
2023/04/24 13:55:50;;;;;;;2.13;0.70;;;;;;;;;;20824170;28;20194;-80
2023/04/24 14:05:52;;;;;;;4.87;0.90;;;;;;;;;;20806851;28;20301;-79
2023/04/24 14:15:54;;;;;;;0.73;0.53;;;;;;;;;;20823321;28;20286;-80
2023/04/24 14:25:56;;;;;;;1.63;0.60;;;;;;;;;;20826305;28;20231;-80
2023/04/24 14:35:57;;;;;;;0.40;0.40;;;;;;;;;;20796575;28;20581;-80
2023/04/24 14:46:00;;;;;;;1.20;0.80;;;;;;;;;;20839971;28;20713;-80
2023/04/24 14:56:01;;;;;;;0.90;0.70;;;;;;;;;;20911325;28;20217;-80
2023/04/24 15:06:03;;;;;;;1.07;0.77;;;;;;;;;;20921890;28;20234;-80
2023/04/24 15:16:05;;;;;;;1.03;0.70;;;14.80;99.90;;;;;;20892463;28;20291;-80
2023/04/24 15:26:07;;;;;;;1.40;0.80;;;;;;;;;;20917739;28;20230;-80
2023/04/24 15:36:08;;;;;;;0.40;0.40;;;;;;;;;;20901752;28;20218;-80
2023/04/24 15:46:10;;;;;;;0.90;0.50;;;15.80;99.90;;;;;;20901507;28;20225;-79
2023/04/24 15:56:12;;;;;;;0.47;0.40;;;;;;;;;;20912354;28;20217;-81
2023/04/24 16:06:13;;;;;;;1.23;0.50;;;;;;;;;;20871499;28;20241;-80
2023/04/24 16:16:15;;;;;;;0.63;0.50;;;;;;;;;;20937909;22;20230;-69
2023/04/24 16:26:17;;;;;;;0.37;0.30;;;;;;;;;;20871855;28;20218;-70
2023/04/24 16:36:20;;;;;;;1.17;0.50;;;17.10;99.90;;;;;;20858347;28;20271;-70
2023/04/24 16:46:22;;;;;;;1.23;0.60;;;;;;;;;;20863037;28;20287;-70
2023/04/24 16:56:24;;;;;;;1.33;0.60;;;;;;;;;;20865134;28;20198;-69
2023/04/24 17:06:26;;;;;;;0.70;0.53;;;;;;;;;;20854670;28;20230;-69
2023/04/24 17:16:28;;;;;;;0.73;0.70;;;;;;;;;;20858382;28;20271;-69
2023/04/24 17:26:31;;;;;;;0.60;0.30;;;;;;;;;;20865126;28;20265;-69
2023/04/24 17:36:33;;;;;;;0.30;0.30;;;;;;;;;;20880680;28;20955;-69
2023/04/24 17:46:35;;;;;;;0.43;0.30;;;;;;;;;;20864276;28;20218;-69
2023/04/24 17:56:37;;;;;;;0.77;0.60;;;;;;;;;;20863538;28;20205;-69
2023/04/24 18:06:39;;;;;;;1.03;0.60;;;;;;;;;;20863141;28;20336;-69
2023/04/24 18:16:40;;;;;;;0.50;0.43;;;;;;;;;;20886301;22;20776;-69
2023/04/24 18:26:42;;;;;;;0.50;0.50;;;;;;;;;;20855380;28;20233;-69
2023/04/24 18:36:45;;;;;;;1.03;0.50;;;;;;;;;;20876667;28;20696;-69
2023/04/24 18:46:46;;;;;;;2.63;0.60;;;;;;;;;;20861859;28;20222;-69
2023/04/24 18:56:48;;;;;;;0.60;0.50;;;;;;;;;;20862539;28;20205;-69
2023/04/24 19:06:50;;;;;;;1.10;0.60;;;;;;;;;;20877926;28;20627;-69
2023/04/24 19:16:52;;;;;;;0.60;0.60;;;;;;;;;;20880194;28;20292;-69
2023/04/24 19:26:55;;;;;;;0.50;0.40;;;;;;;;;;20861411;28;20252;-69
2023/04/24 19:36:58;;;;;;;1.00;0.60;;;14.00;99.90;;;;;;20888480;28;20653;-69
2023/04/24 19:47:00;;;;;;;0.57;0.50;;;;;;;;;;20863763;28;20697;-68
2023/04/24 19:57:02;;;;;;;2.13;0.90;;;;;;;;;;20859506;28;20246;-69
2023/04/24 20:07:05;;;;;;;1.43;0.93;;;;;;;;;;20873977;28;20229;-69
2023/04/24 20:17:07;;;;;;;1.20;0.60;;;;;;;;;;20874482;28;20580;-68
2023/04/24 20:27:11;;;;;;;0.60;0.40;;;;;;;;;;20875765;28;20230;-69
2023/04/24 20:37:13;;;;;;;0.60;0.40;;;;;;;;;;20871050;28;20624;-69
2023/04/24 20:47:15;;;;;;;0.57;0.50;;;;;;;;;;20870190;28;20267;-69
2023/04/24 20:57:17;;;;;;;1.20;0.63;;;;;;;;;;20871863;28;20210;-70
2023/04/24 21:07:19;;;;;;;1.47;0.70;;;;;;;;;;20866442;28;20222;-70
2023/04/24 21:17:21;;;;;;;0.70;0.60;;;;;;;;;;20871069;28;20378;-69
2023/04/24 21:27:23;;;;;;;0.80;0.60;;;;;;;;;;20871828;28;20588;-69
2023/04/24 21:37:25;;;;;;;0.87;0.50;;;;;;;;;;20850746;28;20217;-69
2023/04/24 21:47:27;;;;;;;0.40;0.40;;;;;;;;;;20872703;28;20751;-69
2023/04/24 21:57:29;;;;;;;0.30;0.30;;;13.00;99.90;;;;;;20857954;28;20644;-69
2023/04/24 22:07:35;;;;;;;0.73;0.53;;;12.90;99.90;;;;;;20840677;28;20225;-69
2023/04/24 22:17:38;;;;;;;0.43;0.40;;;;;;;;;;20875071;28;20616;-69
2023/04/24 22:27:40;;;;;;;0.87;0.50;;;;;;;;;;20891068;28;20218;-69
2023/04/24 22:37:42;;;;;;;0.50;0.40;;;;;;;;;;20888423;28;20214;-69
2023/04/24 22:47:45;;;;;;;0.47;0.47;;;;;;;;;;20887103;28;20667;-69
2023/04/24 22:57:50;;;;;;;0.50;0.40;;;;;;;;;;20883418;28;20689;-69
2023/04/24 23:07:52;;;;;;;0.57;0.40;;;;;;;;;;20866617;28;20275;-68
2023/04/24 23:17:53;;;;;;;0.70;0.50;;;;;;;;;;20882339;28;20225;-69
2023/04/24 23:27:55;;;;;;;0.53;0.40;;;;;;;;;;20865885;28;20276;-69
2023/04/24 23:37:57;;;;;;;0.70;0.50;;;;;;;;;;20884631;28;20619;-69
2023/04/24 23:47:59;;;;;;;0.83;0.60;;;;;;;;;;20867644;28;20225;-69
2023/04/24 23:58:01;;;;;;;0.57;0.40;;;;;;;;;;20882134;28;20260;-69
